sensor_id;sensor_type;location;lat;lon;timestamp;P1;durP1;ratioP1;P2;durP2;ratioP2
49556;SDS011;35462;45.048;7.666;2023-07-20T00:11:16;11.60;;;8.95;;
49556;SDS011;35462;45.048;7.666;2023-07-20T00:26:35;11.43;;;8.60;;
49556;SDS011;35462;45.048;7.666;2023-07-20T00:41:55;12.70;;;8.38;;
49556;SDS011;35462;45.048;7.666;2023-07-20T00:57:14;14.38;;;9.52;;
49556;SDS011;35462;45.048;7.666;2023-07-20T01:12:41;12.63;;;7.85;;
49556;SDS011;35462;45.048;7.666;2023-07-20T01:28:22;12.63;;;8.48;;
49556;SDS011;35462;45.048;7.666;2023-07-20T01:43:58;12.18;;;7.60;;
49556;SDS011;35462;45.048;7.666;2023-07-20T01:59:21;11.45;;;8.73;;
49556;SDS011;35462;45.048;7.666;2023-07-20T02:14:41;13.35;;;8.98;;
49556;SDS011;35462;45.048;7.666;2023-07-20T02:30:01;12.27;;;9.73;;
49556;SDS011;35462;45.048;7.666;2023-07-20T02:45:21;18.27;;;10.15;;
49556;SDS011;35462;45.048;7.666;2023-07-20T03:00:42;13.75;;;9.05;;
49556;SDS011;35462;45.048;7.666;2023-07-20T03:16:01;11.18;;;8.38;;
49556;SDS011;35462;45.048;7.666;2023-07-20T03:31:21;16.70;;;9.43;;
49556;SDS011;35462;45.048;7.666;2023-07-20T03:46:41;19.80;;;9.02;;
49556;SDS011;35462;45.048;7.666;2023-07-20T04:02:00;13.20;;;8.13;;
49556;SDS011;35462;45.048;7.666;2023-07-20T04:17:19;17.35;;;9.35;;
49556;SDS011;35462;45.048;7.666;2023-07-20T04:32:39;14.35;;;7.65;;
49556;SDS011;35462;45.048;7.666;2023-07-20T04:48:06;12.10;;;7.78;;
49556;SDS011;35462;45.048;7.666;2023-07-20T05:03:28;16.30;;;8.07;;
49556;SDS011;35462;45.048;7.666;2023-07-20T05:18:48;16.92;;;6.78;;
49556;SDS011;35462;45.048;7.666;2023-07-20T05:34:07;11.68;;;5.20;;
49556;SDS011;35462;45.048;7.666;2023-07-20T05:49:27;11.07;;;4.68;;
49556;SDS011;35462;45.048;7.666;2023-07-20T06:04:46;16.88;;;5.82;;
49556;SDS011;35462;45.048;7.666;2023-07-20T06:20:06;8.75;;;5.22;;
49556;SDS011;35462;45.048;7.666;2023-07-20T06:35:26;13.50;;;5.15;;
49556;SDS011;35462;45.048;7.666;2023-07-20T06:50:45;9.65;;;5.28;;
49556;SDS011;35462;45.048;7.666;2023-07-20T07:06:05;8.70;;;4.03;;
49556;SDS011;35462;45.048;7.666;2023-07-20T07:21:24;9.60;;;5.73;;
49556;SDS011;35462;45.048;7.666;2023-07-20T07:36:44;9.27;;;3.97;;
49556;SDS011;35462;45.048;7.666;2023-07-20T07:52:04;8.20;;;4.03;;
49556;SDS011;35462;45.048;7.666;2023-07-20T08:07:24;11.20;;;4.90;;
49556;SDS011;35462;45.048;7.666;2023-07-20T08:22:43;12.80;;;5.13;;
49556;SDS011;35462;45.048;7.666;2023-07-20T08:38:02;14.33;;;5.33;;
49556;SDS011;35462;45.048;7.666;2023-07-20T08:53:23;11.30;;;5.97;;
49556;SDS011;35462;45.048;7.666;2023-07-20T09:08:43;8.27;;;4.77;;
49556;SDS011;35462;45.048;7.666;2023-07-20T09:24:02;8.13;;;4.67;;
49556;SDS011;35462;45.048;7.666;2023-07-20T09:39:22;10.07;;;5.67;;
49556;SDS011;35462;45.048;7.666;2023-07-20T09:54:41;11.23;;;5.80;;
49556;SDS011;35462;45.048;7.666;2023-07-20T10:10:04;9.83;;;4.83;;
49556;SDS011;35462;45.048;7.666;2023-07-20T10:25:25;8.00;;;4.60;;
49556;SDS011;35462;45.048;7.666;2023-07-20T10:40:55;13.37;;;4.97;;
49556;SDS011;35462;45.048;7.666;2023-07-20T10:56:15;18.00;;;6.53;;
49556;SDS011;35462;45.048;7.666;2023-07-20T11:11:38;8.70;;;5.17;;
49556;SDS011;35462;45.048;7.666;2023-07-20T11:26:59;8.53;;;6.07;;
49556;SDS011;35462;45.048;7.666;2023-07-20T11:42:20;8.57;;;5.13;;
49556;SDS011;35462;45.048;7.666;2023-07-20T11:57:40;9.20;;;5.40;;
49556;SDS011;35462;45.048;7.666;2023-07-20T12:13:03;7.45;;;4.55;;
49556;SDS011;35462;45.048;7.666;2023-07-20T12:28:23;10.50;;;4.10;;
49556;SDS011;35462;45.048;7.666;2023-07-20T12:43:42;9.03;;;3.80;;
49556;SDS011;35462;45.048;7.666;2023-07-20T12:59:03;16.93;;;12.80;;
49556;SDS011;35462;45.048;7.666;2023-07-20T13:14:24;12.50;;;4.40;;
49556;SDS011;35462;45.048;7.666;2023-07-20T13:29:44;5.30;;;3.20;;
49556;SDS011;35462;45.048;7.666;2023-07-20T13:45:04;7.10;;;3.60;;
49556;SDS011;35462;45.048;7.666;2023-07-20T14:00:24;5.28;;;3.88;;
49556;SDS011;35462;45.048;7.666;2023-07-20T14:15:45;7.68;;;4.25;;
49556;SDS011;35462;45.048;7.666;2023-07-20T14:31:04;6.30;;;3.15;;
49556;SDS011;35462;45.048;7.666;2023-07-20T14:46:24;8.63;;;4.38;;
49556;SDS011;35462;45.048;7.666;2023-07-20T15:01:43;7.32;;;4.03;;
49556;SDS011;35462;45.048;7.666;2023-07-20T15:17:04;9.45;;;3.78;;
49556;SDS011;35462;45.048;7.666;2023-07-20T15:32:24;5.82;;;4.28;;
49556;SDS011;35462;45.048;7.666;2023-07-20T15:47:43;9.25;;;5.10;;
49556;SDS011;35462;45.048;7.666;2023-07-20T16:03:03;6.47;;;3.35;;
49556;SDS011;35462;45.048;7.666;2023-07-20T16:18:24;7.45;;;4.05;;
49556;SDS011;35462;45.048;7.666;2023-07-20T16:33:44;11.40;;;3.90;;
49556;SDS011;35462;45.048;7.666;2023-07-20T16:49:05;6.03;;;3.70;;
49556;SDS011;35462;45.048;7.666;2023-07-20T17:04:26;9.90;;;3.58;;
49556;SDS011;35462;45.048;7.666;2023-07-20T17:19:45;6.50;;;4.55;;
49556;SDS011;35462;45.048;7.666;2023-07-20T17:35:05;6.90;;;4.10;;
49556;SDS011;35462;45.048;7.666;2023-07-20T17:50:24;6.53;;;4.03;;
49556;SDS011;35462;45.048;7.666;2023-07-20T18:05:45;7.35;;;3.75;;
49556;SDS011;35462;45.048;7.666;2023-07-20T18:21:05;6.82;;;3.88;;
49556;SDS011;35462;45.048;7.666;2023-07-20T18:36:24;4.95;;;3.22;;
49556;SDS011;35462;45.048;7.666;2023-07-20T18:51:43;9.93;;;4.28;;
49556;SDS011;35462;45.048;7.666;2023-07-20T19:07:03;9.30;;;3.67;;
49556;SDS011;35462;45.048;7.666;2023-07-20T19:22:22;5.80;;;3.53;;
49556;SDS011;35462;45.048;7.666;2023-07-20T19:37:42;6.00;;;3.50;;
49556;SDS011;35462;45.048;7.666;2023-07-20T19:53:03;6.30;;;3.78;;
49556;SDS011;35462;45.048;7.666;2023-07-20T20:08:22;4.72;;;3.38;;
49556;SDS011;35462;45.048;7.666;2023-07-20T20:23:44;8.30;;;4.35;;
49556;SDS011;35462;45.048;7.666;2023-07-20T20:39:03;6.47;;;3.90;;
49556;SDS011;35462;45.048;7.666;2023-07-20T20:54:24;8.38;;;4.25;;
49556;SDS011;35462;45.048;7.666;2023-07-20T21:09:44;6.38;;;3.60;;
49556;SDS011;35462;45.048;7.666;2023-07-20T21:25:04;10.30;;;3.97;;
49556;SDS011;35462;45.048;7.666;2023-07-20T21:40:27;6.53;;;4.32;;
49556;SDS011;35462;45.048;7.666;2023-07-20T21:55:47;8.73;;;4.30;;
49556;SDS011;35462;45.048;7.666;2023-07-20T22:11:09;8.38;;;4.78;;
49556;SDS011;35462;45.048;7.666;2023-07-20T22:26:28;8.77;;;5.38;;
49556;SDS011;35462;45.048;7.666;2023-07-20T22:41:48;7.93;;;4.50;;
49556;SDS011;35462;45.048;7.666;2023-07-20T22:57:07;7.53;;;5.22;;
49556;SDS011;35462;45.048;7.666;2023-07-20T23:12:27;10.00;;;5.13;;
49556;SDS011;35462;45.048;7.666;2023-07-20T23:27:47;8.43;;;4.90;;
49556;SDS011;35462;45.048;7.666;2023-07-20T23:43:07;9.98;;;4.63;;
49556;SDS011;35462;45.048;7.666;2023-07-20T23:58:26;6.65;;;4.78;;
